Terminal Aerodrome Forecast
Issued by NWS

Home | Current Version | Previous Version | Text Only | Print | Product List | Glossary On
Versions: 1 2 3 4 5 6 7 8 9 10 11 12 13 14 15 16 17 18 19 20 21 22 23 24 25 26 27
000
FTUS41 KOKX 191120
TAFSWF
TAF
KSWF 191120Z 1912/2018 VRB03KT P6SM FEW250
     FM191500 25007KT P6SM FEW250
     FM191700 26010G17KT P6SM FEW250
     FM192200 25007KT P6SM FEW250
     FM200000 VRB05KT P6SM SKC
     FM201400 30009KT P6SM SKC
     FM201600 31010G16KT P6SM SKC
      AMD NOT SKED=

USA.gov is the U.S. government's official web portal to all federal, state and local government web resources and services.